sensor_id;sensor_type;location;lat;lon;timestamp;pressure;altitude;pressure_sealevel;temperature;humidity
60307;BME280;46155;52.364;6.580;2023-04-24T03:02:50;99548.44;;;9.05;100.00
60307;BME280;46155;52.364;6.580;2023-04-24T03:05:15;99535.41;;;9.06;100.00
60307;BME280;46155;52.364;6.580;2023-04-24T03:07:41;99539.84;;;9.07;100.00
60307;BME280;46155;52.364;6.580;2023-04-24T03:10:07;99533.47;;;9.02;100.00
60307;BME280;46155;52.364;6.580;2023-04-24T03:12:32;99547.44;;;9.03;100.00
60307;BME280;46155;52.364;6.580;2023-04-24T03:14:58;99544.84;;;9.03;100.00
60307;BME280;46155;52.364;6.580;2023-04-24T03:17:23;99539.59;;;9.03;100.00
60307;BME280;46155;52.364;6.580;2023-04-24T03:19:48;99545.97;;;9.08;100.00
60307;BME280;46155;52.364;6.580;2023-04-24T03:22:13;99546.63;;;9.04;100.00
60307;BME280;46155;52.364;6.580;2023-04-24T03:24:39;99552.84;;;9.06;100.00
60307;BME280;46155;52.364;6.580;2023-04-24T03:27:05;99555.38;;;9.04;100.00
60307;BME280;46155;52.364;6.580;2023-04-24T03:29:30;99555.31;;;9.03;100.00
60307;BME280;46155;52.364;6.580;2023-04-24T03:31:55;99558.91;;;9.05;100.00
60307;BME280;46155;52.364;6.580;2023-04-24T03:34:21;99557.91;;;9.03;100.00
60307;BME280;46155;52.364;6.580;2023-04-24T03:36:46;99570.06;;;9.01;100.00
60307;BME280;46155;52.364;6.580;2023-04-24T03:39:14;99565.63;;;9.00;100.00
60307;BME280;46155;52.364;6.580;2023-04-24T03:41:40;99562.28;;;9.02;100.00
60307;BME280;46155;52.364;6.580;2023-04-24T03:44:05;99565.78;;;9.03;100.00
60307;BME280;46155;52.364;6.580;2023-04-24T03:46:30;99570.94;;;9.01;100.00
60307;BME280;46155;52.364;6.580;2023-04-24T03:48:56;99560.47;;;9.01;100.00
60307;BME280;46155;52.364;6.580;2023-04-24T03:51:21;99565.03;;;9.05;100.00
60307;BME280;46155;52.364;6.580;2023-04-24T03:53:48;99574.75;;;9.08;100.00
60307;BME280;46155;52.364;6.580;2023-04-24T03:56:14;99574.69;;;9.06;100.00
60307;BME280;46155;52.364;6.580;2023-04-24T03:58:40;99569.53;;;9.08;100.00
60307;BME280;46155;52.364;6.580;2023-04-24T04:01:05;99571.31;;;9.09;100.00
60307;BME280;46155;52.364;6.580;2023-04-24T04:03:31;99574.63;;;9.05;100.00
60307;BME280;46155;52.364;6.580;2023-04-24T04:05:56;99576.50;;;9.07;100.00
60307;BME280;46155;52.364;6.580;2023-04-24T04:08:31;99583.75;;;9.13;100.00
60307;BME280;46155;52.364;6.580;2023-04-24T04:10:56;99580.28;;;9.14;100.00
60307;BME280;46155;52.364;6.580;2023-04-24T04:13:21;99580.88;;;9.08;100.00
60307;BME280;46155;52.364;6.580;2023-04-24T04:15:46;99586.03;;;9.07;100.00
60307;BME280;46155;52.364;6.580;2023-04-24T04:18:12;99586.13;;;9.08;100.00
60307;BME280;46155;52.364;6.580;2023-04-24T04:20:37;99590.75;;;9.14;100.00
60307;BME280;46155;52.364;6.580;2023-04-24T04:23:03;99595.03;;;9.12;100.00
60307;BME280;46155;52.364;6.580;2023-04-24T04:25:28;99597.91;;;9.18;100.00
60307;BME280;46155;52.364;6.580;2023-04-24T04:27:54;99610.19;;;9.19;100.00
60307;BME280;46155;52.364;6.580;2023-04-24T04:30:25;99602.19;;;9.16;100.00
60307;BME280;46155;52.364;6.580;2023-04-24T04:32:51;99605.56;;;9.13;100.00
60307;BME280;46155;52.364;6.580;2023-04-24T04:35:16;99609.84;;;9.11;100.00
60307;BME280;46155;52.364;6.580;2023-04-24T04:37:41;99609.91;;;9.13;100.00
60307;BME280;46155;52.364;6.580;2023-04-24T04:40:07;99611.56;;;9.11;100.00
60307;BME280;46155;52.364;6.580;2023-04-24T04:42:35;99611.63;;;9.12;100.00
60307;BME280;46155;52.364;6.580;2023-04-24T04:45:00;99615.09;;;9.11;100.00
60307;BME280;46155;52.364;6.580;2023-04-24T04:47:27;99621.00;;;9.07;100.00
60307;BME280;46155;52.364;6.580;2023-04-24T04:49:53;99615.44;;;9.01;100.00
60307;BME280;46155;52.364;6.580;2023-04-24T04:52:25;99633.84;;;9.03;100.00
60307;BME280;46155;52.364;6.580;2023-04-24T04:54:52;99635.66;;;9.04;100.00
60307;BME280;46155;52.364;6.580;2023-04-24T04:57:17;99630.88;;;8.95;100.00
60307;BME280;46155;52.364;6.580;2023-04-24T04:59:43;99631.91;;;8.99;100.00
60307;BME280;46155;52.364;6.580;2023-04-24T05:02:08;99640.66;;;8.99;100.00
60307;BME280;46155;52.364;6.580;2023-04-24T05:04:34;99632.44;;;8.91;100.00
60307;BME280;46155;52.364;6.580;2023-04-24T05:06:59;99640.34;;;8.93;100.00
60307;BME280;46155;52.364;6.580;2023-04-24T05:09:25;99648.31;;;8.94;100.00
60307;BME280;46155;52.364;6.580;2023-04-24T05:11:53;99647.16;;;8.89;100.00
60307;BME280;46155;52.364;6.580;2023-04-24T05:14:18;99648.59;;;8.83;100.00
60307;BME280;46155;52.364;6.580;2023-04-24T05:16:44;99650.31;;;8.82;100.00
60307;BME280;46155;52.364;6.580;2023-04-24T05:19:09;99661.88;;;8.87;100.00
60307;BME280;46155;52.364;6.580;2023-04-24T05:21:37;99665.63;;;8.92;100.00
60307;BME280;46155;52.364;6.580;2023-04-24T05:24:02;99657.66;;;8.89;100.00
60307;BME280;46155;52.364;6.580;2023-04-24T05:26:28;99657.94;;;8.95;100.00
60307;BME280;46155;52.364;6.580;2023-04-24T05:28:53;99668.13;;;8.89;100.00
60307;BME280;46155;52.364;6.580;2023-04-24T05:31:19;99643.28;;;8.81;100.00
60307;BME280;46155;52.364;6.580;2023-04-24T05:33:45;99664.16;;;8.98;100.00
60307;BME280;46155;52.364;6.580;2023-04-24T05:36:10;99670.34;;;9.00;100.00
60307;BME280;46155;52.364;6.580;2023-04-24T05:38:35;99676.84;;;8.90;100.00
60307;BME280;46155;52.364;6.580;2023-04-24T05:41:01;99674.97;;;8.87;100.00
60307;BME280;46155;52.364;6.580;2023-04-24T05:43:26;99675.91;;;8.88;100.00
60307;BME280;46155;52.364;6.580;2023-04-24T05:45:51;99683.19;;;8.77;100.00
60307;BME280;46155;52.364;6.580;2023-04-24T05:48:18;99684.84;;;8.75;100.00
60307;BME280;46155;52.364;6.580;2023-04-24T05:50:44;99678.69;;;8.74;100.00
60307;BME280;46155;52.364;6.580;2023-04-24T05:53:09;99682.25;;;8.75;100.00
60307;BME280;46155;52.364;6.580;2023-04-24T05:55:36;99682.38;;;8.78;100.00
60307;BME280;46155;52.364;6.580;2023-04-24T05:58:01;99681.41;;;8.76;100.00
60307;BME280;46155;52.364;6.580;2023-04-24T06:00:26;99683.94;;;8.74;100.00
60307;BME280;46155;52.364;6.580;2023-04-24T06:02:52;99689.16;;;8.74;100.00
60307;BME280;46155;52.364;6.580;2023-04-24T06:05:18;99691.72;;;8.73;100.00
60307;BME280;46155;52.364;6.580;2023-04-24T06:07:44;99690.00;;;8.73;100.00
60307;BME280;46155;52.364;6.580;2023-04-24T06:10:10;99695.31;;;8.75;100.00
60307;BME280;46155;52.364;6.580;2023-04-24T06:12:35;99700.56;;;8.75;100.00
60307;BME280;46155;52.364;6.580;2023-04-24T06:15:04;99697.94;;;8.75;100.00
60307;BME280;46155;52.364;6.580;2023-04-24T06:17:30;99703.75;;;8.69;100.00
60307;BME280;46155;52.364;6.580;2023-04-24T06:19:56;99700.06;;;8.66;100.00
60307;BME280;46155;52.364;6.580;2023-04-24T06:22:21;99703.50;;;8.65;100.00
60307;BME280;46155;52.364;6.580;2023-04-24T06:24:47;99707.03;;;8.65;100.00
60307;BME280;46155;52.364;6.580;2023-04-24T06:27:13;99706.13;;;8.65;100.00
60307;BME280;46155;52.364;6.580;2023-04-24T06:29:39;99706.97;;;8.64;100.00
60307;BME280;46155;52.364;6.580;2023-04-24T06:32:05;99712.06;;;8.60;100.00
60307;BME280;46155;52.364;6.580;2023-04-24T06:34:30;99712.19;;;8.64;100.00
60307;BME280;46155;52.364;6.580;2023-04-24T06:36:58;99712.34;;;8.67;100.00
60307;BME280;46155;52.364;6.580;2023-04-24T06:39:23;99717.72;;;8.70;100.00
60307;BME280;46155;52.364;6.580;2023-04-24T06:41:49;99691.41;;;8.67;100.00
60307;BME280;46155;52.364;6.580;2023-04-24T06:44:15;99709.44;;;8.78;100.00
60307;BME280;46155;52.364;6.580;2023-04-24T06:46:43;99712.91;;;8.77;100.00
60307;BME280;46155;52.364;6.580;2023-04-24T06:49:09;99705.66;;;8.72;100.00
60307;BME280;46155;52.364;6.580;2023-04-24T06:51:34;99724.03;;;8.73;100.00
60307;BME280;46155;52.364;6.580;2023-04-24T06:53:59;99728.50;;;8.76;100.00
60307;BME280;46155;52.364;6.580;2023-04-24T06:56:26;99721.50;;;8.75;100.00
60307;BME280;46155;52.364;6.580;2023-04-24T06:58:51;99727.63;;;8.75;100.00
60307;BME280;46155;52.364;6.580;2023-04-24T07:01:16;99728.34;;;8.73;100.00
60307;BME280;46155;52.364;6.580;2023-04-24T07:03:42;99728.72;;;8.63;100.00
60307;BME280;46155;52.364;6.580;2023-04-24T07:06:07;99732.47;;;8.68;100.00
60307;BME280;46155;52.364;6.580;2023-04-24T07:08:33;99735.97;;;8.68;100.00
60307;BME280;46155;52.364;6.580;2023-04-24T07:10:58;99739.47;;;8.69;100.00
60307;BME280;46155;52.364;6.580;2023-04-24T07:13:24;99733.13;;;8.64;100.00
60307;BME280;46155;52.364;6.580;2023-04-24T07:15:50;99742.59;;;8.61;100.00
60307;BME280;46155;52.364;6.580;2023-04-24T07:18:17;99740.06;;;8.63;100.00
60307;BME280;46155;52.364;6.580;2023-04-24T07:20:43;99735.25;;;8.54;100.00
60307;BME280;46155;52.364;6.580;2023-04-24T07:23:09;99746.94;;;8.61;100.00
60307;BME280;46155;52.364;6.580;2023-04-24T07:25:34;99743.25;;;8.57;100.00
60307;BME280;46155;52.364;6.580;2023-04-24T07:28:00;99755.84;;;8.65;100.00
60307;BME280;46155;52.364;6.580;2023-04-24T07:30:25;99758.44;;;8.65;100.00
60307;BME280;46155;52.364;6.580;2023-04-24T07:32:51;99762.88;;;8.66;100.00
60307;BME280;46155;52.364;6.580;2023-04-24T07:35:17;99754.22;;;8.67;100.00
60307;BME280;46155;52.364;6.580;2023-04-24T07:37:43;99763.69;;;8.65;100.00
60307;BME280;46155;52.364;6.580;2023-04-24T07:40:15;99766.41;;;8.66;100.00
60307;BME280;46155;52.364;6.580;2023-04-24T07:42:40;99760.91;;;8.61;100.00
60307;BME280;46155;52.364;6.580;2023-04-24T07:45:07;99767.28;;;8.67;100.00
60307;BME280;46155;52.364;6.580;2023-04-24T07:47:34;99776.94;;;8.68;100.00
60307;BME280;46155;52.364;6.580;2023-04-24T07:50:00;99772.44;;;8.65;100.00
60307;BME280;46155;52.364;6.580;2023-04-24T07:52:26;99776.53;;;8.60;100.00
60307;BME280;46155;52.364;6.580;2023-04-24T07:54:51;99778.00;;;8.71;100.00
60307;BME280;46155;52.364;6.580;2023-04-24T07:57:24;99785.91;;;8.73;100.00
60307;BME280;46155;52.364;6.580;2023-04-24T07:59:50;99783.38;;;8.74;100.00
60307;BME280;46155;52.364;6.580;2023-04-24T08:02:16;99784.28;;;8.75;100.00
60307;BME280;46155;52.364;6.580;2023-04-24T08:04:42;99790.66;;;8.80;100.00
60307;BME280;46155;52.364;6.580;2023-04-24T08:07:07;99794.91;;;8.78;100.00
60307;BME280;46155;52.364;6.580;2023-04-24T08:09:33;99778.00;;;8.71;100.00
60307;BME280;46155;52.364;6.580;2023-04-24T08:11:58;99802.25;;;8.85;100.00
60307;BME280;46155;52.364;6.580;2023-04-24T08:14:24;99807.50;;;8.85;100.00
60307;BME280;46155;52.364;6.580;2023-04-24T08:16:49;99794.19;;;8.81;100.00
60307;BME280;46155;52.364;6.580;2023-04-24T08:19:15;99794.25;;;8.82;100.00
60307;BME280;46155;52.364;6.580;2023-04-24T08:21:40;99820.00;;;8.91;100.00
60307;BME280;46155;52.364;6.580;2023-04-24T08:24:05;99819.03;;;8.89;100.00
60307;BME280;46155;52.364;6.580;2023-04-24T08:26:32;99818.28;;;8.91;100.00
60307;BME280;46155;52.364;6.580;2023-04-24T08:28:58;99823.50;;;8.91;100.00
60307;BME280;46155;52.364;6.580;2023-04-24T08:31:23;99832.50;;;8.96;100.00
60307;BME280;46155;52.364;6.580;2023-04-24T08:33:50;99833.31;;;8.95;100.00
60307;BME280;46155;52.364;6.580;2023-04-24T08:36:15;99834.97;;;8.93;100.00
60307;BME280;46155;52.364;6.580;2023-04-24T08:38:42;99828.75;;;8.91;100.00
60307;BME280;46155;52.364;6.580;2023-04-24T08:41:07;99839.53;;;8.98;100.00
60307;BME280;46155;52.364;6.580;2023-04-24T08:43:35;99844.94;;;9.01;100.00
60307;BME280;46155;52.364;6.580;2023-04-24T08:46:01;99844.19;;;9.03;100.00
60307;BME280;46155;52.364;6.580;2023-04-24T08:48:27;99857.53;;;9.08;100.00
60307;BME280;46155;52.364;6.580;2023-04-24T08:50:53;99862.03;;;9.10;100.00
60307;BME280;46155;52.364;6.580;2023-04-24T08:53:19;99862.91;;;9.11;100.00
60307;BME280;46155;52.364;6.580;2023-04-24T08:55:47;99872.66;;;9.13;100.00
60307;BME280;46155;52.364;6.580;2023-04-24T08:58:13;99870.09;;;9.15;100.00
60307;BME280;46155;52.364;6.580;2023-04-24T09:00:39;99877.75;;;9.28;100.00
60307;BME280;46155;52.364;6.580;2023-04-24T09:03:09;99887.41;;;9.29;100.00
60307;BME280;46155;52.364;6.580;2023-04-24T09:05:35;99885.81;;;9.15;100.00
60307;BME280;46155;52.364;6.580;2023-04-24T09:08:02;99899.56;;;9.11;100.00
60307;BME280;46155;52.364;6.580;2023-04-24T09:10:29;99901.22;;;8.92;100.00
60307;BME280;46155;52.364;6.580;2023-04-24T09:12:56;99916.53;;;8.85;100.00
60307;BME280;46155;52.364;6.580;2023-04-24T09:15:21;99917.44;;;8.85;100.00
60307;BME280;46155;52.364;6.580;2023-04-24T09:17:47;99935.66;;;8.84;100.00
60307;BME280;46155;52.364;6.580;2023-04-24T09:20:12;99940.06;;;8.68;100.00
60307;BME280;46155;52.364;6.580;2023-04-24T09:22:38;99936.84;;;8.57;100.00
60307;BME280;46155;52.364;6.580;2023-04-24T09:25:05;99954.19;;;8.55;100.00
60307;BME280;46155;52.364;6.580;2023-04-24T09:27:32;99956.66;;;8.52;100.00
60307;BME280;46155;52.364;6.580;2023-04-24T09:29:59;99962.53;;;8.48;100.00
60307;BME280;46155;52.364;6.580;2023-04-24T09:32:25;99971.88;;;8.59;100.00
60307;BME280;46155;52.364;6.580;2023-04-24T09:35:05;99976.75;;;8.53;100.00
60307;BME280;46155;52.364;6.580;2023-04-24T09:37:35;99978.91;;;8.60;100.00
60307;BME280;46155;52.364;6.580;2023-04-24T09:40:18;99978.72;;;8.57;100.00
60307;BME280;46155;52.364;6.580;2023-04-24T09:42:54;99991.31;;;8.65;100.00
60307;BME280;46155;52.364;6.580;2023-04-24T09:45:21;99999.16;;;8.65;100.00
60307;BME280;46155;52.364;6.580;2023-04-24T09:47:51;100003.75;;;8.69;100.00
60307;BME280;46155;52.364;6.580;2023-04-24T09:50:17;100001.06;;;8.67;100.00
60307;BME280;46155;52.364;6.580;2023-04-24T09:52:56;99999.78;;;8.75;100.00
60307;BME280;46155;52.364;6.580;2023-04-24T09:55:22;100002.31;;;8.74;100.00
60307;BME280;46155;52.364;6.580;2023-04-24T09:57:57;100010.97;;;8.73;100.00
60307;BME280;46155;52.364;6.580;2023-04-24T10:00:30;100018.81;;;8.73;100.00
60307;BME280;46155;52.364;6.580;2023-04-24T10:03:02;100026.66;;;8.73;100.00
60307;BME280;46155;52.364;6.580;2023-04-24T10:05:37;100025.94;;;8.75;100.00
60307;BME280;46155;52.364;6.580;2023-04-24T10:08:08;100039.00;;;8.90;100.00
60307;BME280;46155;52.364;6.580;2023-04-24T10:10:42;100033.56;;;8.87;100.00
60307;BME280;46155;52.364;6.580;2023-04-24T10:13:09;100039.22;;;8.95;100.00
60307;BME280;46155;52.364;6.580;2023-04-24T10:15:36;100045.03;;;8.89;100.00
60307;BME280;46155;52.364;6.580;2023-04-24T10:18:04;100048.97;;;8.98;100.00
60307;BME280;46155;52.364;6.580;2023-04-24T10:20:31;100045.53;;;8.99;100.00
60307;BME280;46155;52.364;6.580;2023-04-24T10:22:58;100047.56;;;8.88;100.00
60307;BME280;46155;52.364;6.580;2023-04-24T10:25:28;100061.53;;;8.88;100.00
60307;BME280;46155;52.364;6.580;2023-04-24T10:27:54;100059.84;;;8.89;100.00
60307;BME280;46155;52.364;6.580;2023-04-24T10:30:25;100073.03;;;8.90;100.00
60307;BME280;46155;52.364;6.580;2023-04-24T10:32:51;100079.94;;;8.73;100.00
60307;BME280;46155;52.364;6.580;2023-04-24T10:35:17;100089.69;;;8.61;100.00
60307;BME280;46155;52.364;6.580;2023-04-24T10:37:56;100092.56;;;8.66;100.00
60307;BME280;46155;52.364;6.580;2023-04-24T10:40:27;100097.63;;;8.63;100.00
60307;BME280;46155;52.364;6.580;2023-04-24T10:42:55;100097.63;;;8.63;100.00
60307;BME280;46155;52.364;6.580;2023-04-24T10:45:22;100108.63;;;8.57;100.00
60307;BME280;46155;52.364;6.580;2023-04-24T10:48:07;100122.81;;;8.60;100.00
60307;BME280;46155;52.364;6.580;2023-04-24T10:50:45;100123.44;;;8.56;100.00
60307;BME280;46155;52.364;6.580;2023-04-24T10:53:18;100128.38;;;8.52;100.00
60307;BME280;46155;52.364;6.580;2023-04-24T10:55:47;100130.19;;;8.53;100.00
60307;BME280;46155;52.364;6.580;2023-04-24T10:58:13;100141.13;;;8.60;100.00
60307;BME280;46155;52.364;6.580;2023-04-24T11:00:40;100125.94;;;8.70;100.00
60307;BME280;46155;52.364;6.580;2023-04-24T11:03:28;100139.91;;;8.85;100.00
60307;BME280;46155;52.364;6.580;2023-04-24T11:06:08;100139.09;;;8.86;100.00
60307;BME280;46155;52.364;6.580;2023-04-24T11:08:43;100146.81;;;9.00;100.00
60307;BME280;46155;52.364;6.580;2023-04-24T11:11:24;100152.06;;;9.00;100.00
60307;BME280;46155;52.364;6.580;2023-04-24T11:16:27;100152.59;;;9.09;100.00
60307;BME280;46155;52.364;6.580;2023-04-24T11:19:18;100161.34;;;9.09;100.00
60307;BME280;46155;52.364;6.580;2023-04-24T11:21:46;100160.72;;;8.99;100.00
60307;BME280;46155;52.364;6.580;2023-04-24T11:26:58;100175.84;;;8.88;100.00
60307;BME280;46155;52.364;6.580;2023-04-24T11:29:40;100187.56;;;8.79;100.00
60307;BME280;46155;52.364;6.580;2023-04-24T11:34:46;100192.91;;;8.66;100.00
60307;BME280;46155;52.364;6.580;2023-04-24T11:37:12;100193.63;;;8.64;100.00
60307;BME280;46155;52.364;6.580;2023-04-24T11:39:38;100201.56;;;8.65;100.00
60307;BME280;46155;52.364;6.580;2023-04-24T11:42:04;100192.53;;;8.60;100.00
60307;BME280;46155;52.364;6.580;2023-04-24T11:44:31;100202.28;;;8.63;100.00
60307;BME280;46155;52.364;6.580;2023-04-24T11:47:01;100214.56;;;8.64;100.00
60307;BME280;46155;52.364;6.580;2023-04-24T11:49:26;100218.41;;;8.70;100.00
60307;BME280;46155;52.364;6.580;2023-04-24T11:51:55;100208.34;;;8.76;100.00
60307;BME280;46155;52.364;6.580;2023-04-24T11:54:20;100201.00;;;8.86;100.00
60307;BME280;46155;52.364;6.580;2023-04-24T11:56:47;100223.66;;;8.85;100.00
60307;BME280;46155;52.364;6.580;2023-04-24T11:59:13;100227.16;;;8.86;100.00
60307;BME280;46155;52.364;6.580;2023-04-24T12:01:48;100233.34;;;8.86;100.00
60307;BME280;46155;52.364;6.580;2023-04-24T12:04:15;100236.56;;;8.97;100.00
60307;BME280;46155;52.364;6.580;2023-04-24T12:07:03;100241.69;;;8.95;100.00
60307;BME280;46155;52.364;6.580;2023-04-24T12:09:58;100239.47;;;9.02;100.00
60307;BME280;46155;52.364;6.580;2023-04-24T12:12:27;100244.88;;;9.05;100.00
60307;BME280;46155;52.364;6.580;2023-04-24T12:17:31;100240.00;;;8.96;100.00
60307;BME280;46155;52.364;6.580;2023-04-24T12:20:05;100252.28;;;8.82;100.00
60307;BME280;46155;52.364;6.580;2023-04-24T12:25:18;100247.84;;;8.81;100.00
60307;BME280;46155;52.364;6.580;2023-04-24T12:27:55;100260.94;;;8.81;100.00
60307;BME280;46155;52.364;6.580;2023-04-24T12:30:21;100259.50;;;8.86;100.00
60307;BME280;46155;52.364;6.580;2023-04-24T12:32:51;100266.72;;;8.90;100.00
60307;BME280;46155;52.364;6.580;2023-04-24T12:35:21;100268.53;;;9.06;100.00
60307;BME280;46155;52.364;6.580;2023-04-24T12:37:47;100268.19;;;9.00;100.00
60307;BME280;46155;52.364;6.580;2023-04-24T12:40:14;100274.75;;;8.93;100.00
60307;BME280;46155;52.364;6.580;2023-04-24T12:42:56;100283.50;;;8.94;100.00
60307;BME280;46155;52.364;6.580;2023-04-24T12:45:21;100283.88;;;8.85;100.00
60307;BME280;46155;52.364;6.580;2023-04-24T12:47:48;100283.53;;;8.79;100.00
60307;BME280;46155;52.364;6.580;2023-04-24T12:50:15;100288.75;;;8.79;100.00
60307;BME280;46155;52.364;6.580;2023-04-24T12:52:46;100293.91;;;8.77;100.00
60307;BME280;46155;52.364;6.580;2023-04-24T12:55:11;100300.47;;;8.86;100.00
60307;BME280;46155;52.364;6.580;2023-04-24T12:57:38;100291.44;;;8.95;100.00
60307;BME280;46155;52.364;6.580;2023-04-24T13:00:06;100299.59;;;9.00;100.00
60307;BME280;46155;52.364;6.580;2023-04-24T13:02:33;100294.53;;;9.03;100.00
60307;BME280;46155;52.364;6.580;2023-04-24T13:05:02;100311.75;;;9.00;100.00
60307;BME280;46155;52.364;6.580;2023-04-24T13:07:28;100304.44;;;8.94;100.00
60307;BME280;46155;52.364;6.580;2023-04-24T13:09:55;100319.25;;;8.93;100.00
60307;BME280;46155;52.364;6.580;2023-04-24T13:12:21;100311.47;;;8.80;100.00
60307;BME280;46155;52.364;6.580;2023-04-24T13:14:46;100326.81;;;8.74;100.00
60307;BME280;46155;52.364;6.580;2023-04-24T13:17:12;100319.78;;;8.73;100.00
60307;BME280;46155;52.364;6.580;2023-04-24T13:19:40;100330.06;;;8.70;100.00
60307;BME280;46155;52.364;6.580;2023-04-24T13:22:06;100327.09;;;8.64;100.00
60307;BME280;46155;52.364;6.580;2023-04-24T13:24:32;100325.72;;;8.70;100.00
60307;BME280;46155;52.364;6.580;2023-04-24T13:26:58;100327.81;;;8.76;100.00
60307;BME280;46155;52.364;6.580;2023-04-24T13:29:23;100323.56;;;8.78;100.00
60307;BME280;46155;52.364;6.580;2023-04-24T13:31:52;100331.78;;;8.84;100.00
60307;BME280;46155;52.364;6.580;2023-04-24T13:34:24;100331.16;;;8.88;100.00
60307;BME280;46155;52.364;6.580;2023-04-24T13:36:52;100325.75;;;8.85;100.00
60307;BME280;46155;52.364;6.580;2023-04-24T13:39:18;100336.03;;;8.97;100.00
60307;BME280;46155;52.364;6.580;2023-04-24T13:41:43;100336.13;;;8.99;100.00
60307;BME280;46155;52.364;6.580;2023-04-24T13:44:09;100336.41;;;8.88;100.00
60307;BME280;46155;52.364;6.580;2023-04-24T13:46:35;100337.84;;;8.83;100.00
60307;BME280;46155;52.364;6.580;2023-04-24T13:49:01;100343.50;;;8.76;100.00
60307;BME280;46155;52.364;6.580;2023-04-24T13:51:27;100349.56;;;8.75;100.00
60307;BME280;46155;52.364;6.580;2023-04-24T13:53:53;100353.88;;;8.59;100.00
60307;BME280;46155;52.364;6.580;2023-04-24T13:56:19;100350.44;;;8.60;100.00
60307;BME280;46155;52.364;6.580;2023-04-24T13:58:45;100349.94;;;8.66;100.00
60307;BME280;46155;52.364;6.580;2023-04-24T14:01:10;100352.47;;;8.79;100.00
60307;BME280;46155;52.364;6.580;2023-04-24T14:03:37;100350.84;;;8.96;100.00
60307;BME280;46155;52.364;6.580;2023-04-24T14:06:02;100350.69;;;9.08;100.00
60307;BME280;46155;52.364;6.580;2023-04-24T14:08:28;100349.34;;;9.15;100.00
60307;BME280;46155;52.364;6.580;2023-04-24T14:10:53;100350.34;;;9.17;100.00
60307;BME280;46155;52.364;6.580;2023-04-24T14:13:19;100355.47;;;9.16;100.00
60307;BME280;46155;52.364;6.580;2023-04-24T14:15:45;100351.69;;;9.10;100.00
60307;BME280;46155;52.364;6.580;2023-04-24T14:18:10;100359.63;;;9.12;100.00
60307;BME280;46155;52.364;6.580;2023-04-24T14:20:36;100369.09;;;8.95;100.00
60307;BME280;46155;52.364;6.580;2023-04-24T14:23:01;100375.66;;;8.88;100.00
60307;BME280;46155;52.364;6.580;2023-04-24T14:25:26;100370.50;;;8.75;100.00
60307;BME280;46155;52.364;6.580;2023-04-24T14:27:52;100368.84;;;8.62;100.00
60307;BME280;46155;52.364;6.580;2023-04-24T14:30:18;100377.41;;;8.59;100.00
60307;BME280;46155;52.364;6.580;2023-04-24T14:32:44;100372.81;;;8.55;100.00
60307;BME280;46155;52.364;6.580;2023-04-24T14:35:09;100378.84;;;8.54;100.00
60307;BME280;46155;52.364;6.580;2023-04-24T14:37:35;100374.28;;;8.65;100.00
60307;BME280;46155;52.364;6.580;2023-04-24T14:40:01;100366.34;;;8.64;100.00
60307;BME280;46155;52.364;6.580;2023-04-24T14:42:29;100375.97;;;8.65;100.00
60307;BME280;46155;52.364;6.580;2023-04-24T14:44:55;100377.53;;;8.76;100.00
60307;BME280;46155;52.364;6.580;2023-04-24T14:47:20;100382.34;;;8.83;100.00
60307;BME280;46155;52.364;6.580;2023-04-24T14:49:49;100371.06;;;8.84;100.00
60307;BME280;46155;52.364;6.580;2023-04-24T14:52:14;100384.53;;;8.90;100.00
60307;BME280;46155;52.364;6.580;2023-04-24T14:54:41;100384.06;;;8.83;100.00
60307;BME280;46155;52.364;6.580;2023-04-24T14:57:07;100387.19;;;8.77;100.00
60307;BME280;46155;52.364;6.580;2023-04-24T14:59:32;100395.06;;;8.77;100.00
60307;BME280;46155;52.364;6.580;2023-04-24T15:01:58;100395.13;;;8.78;100.00
60307;BME280;46155;52.364;6.580;2023-04-24T15:04:27;100397.31;;;8.71;100.00
60307;BME280;46155;52.364;6.580;2023-04-24T15:06:53;100406.75;;;8.69;100.00
60307;BME280;46155;52.364;6.580;2023-04-24T15:09:19;100400.72;;;8.70;100.00
60307;BME280;46155;52.364;6.580;2023-04-24T15:11:45;100401.91;;;8.75;100.00
60307;BME280;46155;52.364;6.580;2023-04-24T15:14:10;100400.28;;;8.77;100.00
60307;BME280;46155;52.364;6.580;2023-04-24T15:16:35;100401.38;;;8.81;100.00
60307;BME280;46155;52.364;6.580;2023-04-24T15:19:01;100399.03;;;8.85;100.00
60307;BME280;46155;52.364;6.580;2023-04-24T15:21:26;100402.84;;;8.90;100.00
60307;BME280;46155;52.364;6.580;2023-04-24T15:23:52;100409.34;;;8.97;100.00
60307;BME280;46155;52.364;6.580;2023-04-24T15:26:17;100403.22;;;8.96;100.00
60307;BME280;46155;52.364;6.580;2023-04-24T15:28:42;100405.41;;;9.04;100.00
60307;BME280;46155;52.364;6.580;2023-04-24T15:31:11;100414.13;;;8.89;100.00
60307;BME280;46155;52.364;6.580;2023-04-24T15:33:36;100412.59;;;8.93;100.00
60307;BME280;46155;52.364;6.580;2023-04-24T15:36:01;100418.22;;;8.99;100.00
60307;BME280;46155;52.364;6.580;2023-04-24T15:38:27;100414.63;;;9.12;100.00
60307;BME280;46155;52.364;6.580;2023-04-24T15:40:52;100423.84;;;9.20;100.00
60307;BME280;46155;52.364;6.580;2023-04-24T15:43:17;100415.44;;;9.11;100.00
60307;BME280;46155;52.364;6.580;2023-04-24T15:45:43;100412.09;;;9.13;100.00
60307;BME280;46155;52.364;6.580;2023-04-24T15:48:08;100421.16;;;9.19;100.00
60307;BME280;46155;52.364;6.580;2023-04-24T15:50:34;100418.53;;;9.19;100.00
60307;BME280;46155;52.364;6.580;2023-04-24T15:52:59;100415.59;;;9.14;100.00
60307;BME280;46155;52.364;6.580;2023-04-24T15:55:24;100419.50;;;9.06;100.00
60307;BME280;46155;52.364;6.580;2023-04-24T15:57:50;100428.16;;;9.05;100.00
60307;BME280;46155;52.364;6.580;2023-04-24T16:00:16;100430.50;;;9.15;100.00
60307;BME280;46155;52.364;6.580;2023-04-24T16:02:42;100427.72;;;9.12;100.00
60307;BME280;46155;52.364;6.580;2023-04-24T16:05:08;100431.25;;;9.27;100.00
60307;BME280;46155;52.364;6.580;2023-04-24T16:07:33;100429.09;;;9.35;100.00
60307;BME280;46155;52.364;6.580;2023-04-24T16:10:00;100439.03;;;9.41;100.00